sensor_id;sensor_type;location;lat;lon;timestamp;P1;durP1;ratioP1;P2;durP2;ratioP2
9007;SDS011;62813;51.424;6.762;2023-07-02T00:00:05;6.37;;;3.33;;
9007;SDS011;62813;51.424;6.762;2023-07-02T00:02:35;7.83;;;3.73;;
9007;SDS011;62813;51.424;6.762;2023-07-02T00:05:02;5.37;;;3.10;;
9007;SDS011;62813;51.424;6.762;2023-07-02T00:07:29;5.33;;;3.43;;
9007;SDS011;62813;51.424;6.762;2023-07-02T00:09:56;4.07;;;3.67;;
9007;SDS011;62813;51.424;6.762;2023-07-02T00:12:23;7.00;;;3.80;;
9007;SDS011;62813;51.424;6.762;2023-07-02T00:14:50;8.03;;;3.57;;
9007;SDS011;62813;51.424;6.762;2023-07-02T00:17:19;8.70;;;3.53;;
9007;SDS011;62813;51.424;6.762;2023-07-02T00:19:47;7.30;;;3.67;;
9007;SDS011;62813;51.424;6.762;2023-07-02T00:22:18;7.33;;;4.00;;
9007;SDS011;62813;51.424;6.762;2023-07-02T00:24:45;8.50;;;3.77;;
9007;SDS011;62813;51.424;6.762;2023-07-02T00:27:12;5.03;;;3.60;;
9007;SDS011;62813;51.424;6.762;2023-07-02T00:29:39;6.47;;;3.40;;
9007;SDS011;62813;51.424;6.762;2023-07-02T00:32:05;8.23;;;4.57;;
9007;SDS011;62813;51.424;6.762;2023-07-02T00:34:32;6.80;;;4.00;;
9007;SDS011;62813;51.424;6.762;2023-07-02T00:36:59;10.90;;;4.43;;
9007;SDS011;62813;51.424;6.762;2023-07-02T00:39:25;6.17;;;3.60;;
9007;SDS011;62813;51.424;6.762;2023-07-02T00:41:52;6.13;;;4.10;;
9007;SDS011;62813;51.424;6.762;2023-07-02T00:44:19;8.80;;;4.53;;
9007;SDS011;62813;51.424;6.762;2023-07-02T00:46:49;10.70;;;4.40;;
9007;SDS011;62813;51.424;6.762;2023-07-02T00:49:16;7.50;;;4.00;;
9007;SDS011;62813;51.424;6.762;2023-07-02T00:51:43;6.50;;;4.00;;
9007;SDS011;62813;51.424;6.762;2023-07-02T00:54:10;8.57;;;4.70;;
9007;SDS011;62813;51.424;6.762;2023-07-02T00:56:36;8.20;;;5.10;;
9007;SDS011;62813;51.424;6.762;2023-07-02T00:59:03;9.30;;;4.20;;
9007;SDS011;62813;51.424;6.762;2023-07-02T01:01:30;7.20;;;4.43;;
9007;SDS011;62813;51.424;6.762;2023-07-02T01:04:01;9.93;;;4.80;;
9007;SDS011;62813;51.424;6.762;2023-07-02T01:06:29;6.67;;;4.00;;
9007;SDS011;62813;51.424;6.762;2023-07-02T01:09:02;6.13;;;3.57;;
9007;SDS011;62813;51.424;6.762;2023-07-02T01:17:00;5.57;;;3.50;;
9007;SDS011;62813;51.424;6.762;2023-07-02T01:22:00;7.83;;;3.73;;
9007;SDS011;62813;51.424;6.762;2023-07-02T01:24:28;7.53;;;3.77;;
9007;SDS011;62813;51.424;6.762;2023-07-02T01:26:54;8.53;;;4.23;;
9007;SDS011;62813;51.424;6.762;2023-07-02T01:29:22;8.23;;;4.23;;
9007;SDS011;62813;51.424;6.762;2023-07-02T01:31:49;8.03;;;4.10;;
9007;SDS011;62813;51.424;6.762;2023-07-02T01:34:15;7.30;;;4.00;;
9007;SDS011;62813;51.424;6.762;2023-07-02T01:36:42;6.57;;;4.40;;
9007;SDS011;62813;51.424;6.762;2023-07-02T01:39:09;7.43;;;4.13;;
9007;SDS011;62813;51.424;6.762;2023-07-02T01:41:49;8.17;;;4.40;;
9007;SDS011;62813;51.424;6.762;2023-07-02T01:44:19;9.23;;;4.67;;
9007;SDS011;62813;51.424;6.762;2023-07-02T01:46:48;7.37;;;4.30;;
9007;SDS011;62813;51.424;6.762;2023-07-02T01:49:18;11.17;;;4.90;;
9007;SDS011;62813;51.424;6.762;2023-07-02T01:51:49;9.33;;;5.10;;
9007;SDS011;62813;51.424;6.762;2023-07-02T01:54:19;10.77;;;5.03;;
9007;SDS011;62813;51.424;6.762;2023-07-02T01:56:46;11.00;;;5.20;;
9007;SDS011;62813;51.424;6.762;2023-07-02T01:59:13;9.77;;;5.03;;
9007;SDS011;62813;51.424;6.762;2023-07-02T02:01:40;7.43;;;5.10;;
9007;SDS011;62813;51.424;6.762;2023-07-02T02:04:08;9.67;;;6.20;;
9007;SDS011;62813;51.424;6.762;2023-07-02T02:06:36;10.07;;;5.80;;
9007;SDS011;62813;51.424;6.762;2023-07-02T02:09:03;10.33;;;5.60;;
9007;SDS011;62813;51.424;6.762;2023-07-02T02:11:31;10.90;;;5.73;;
9007;SDS011;62813;51.424;6.762;2023-07-02T02:13:59;11.00;;;6.90;;
9007;SDS011;62813;51.424;6.762;2023-07-02T02:16:27;12.23;;;6.87;;
9007;SDS011;62813;51.424;6.762;2023-07-02T02:18:55;11.10;;;6.23;;
9007;SDS011;62813;51.424;6.762;2023-07-02T02:21:22;9.93;;;6.57;;
9007;SDS011;62813;51.424;6.762;2023-07-02T02:23:48;11.97;;;6.97;;
9007;SDS011;62813;51.424;6.762;2023-07-02T02:26:15;12.10;;;7.07;;
9007;SDS011;62813;51.424;6.762;2023-07-02T02:28:42;12.60;;;6.90;;
9007;SDS011;62813;51.424;6.762;2023-07-02T02:31:09;12.63;;;7.80;;
9007;SDS011;62813;51.424;6.762;2023-07-02T02:33:36;14.20;;;7.20;;
9007;SDS011;62813;51.424;6.762;2023-07-02T02:36:03;13.67;;;7.17;;
9007;SDS011;62813;51.424;6.762;2023-07-02T02:38:29;17.23;;;6.87;;
9007;SDS011;62813;51.424;6.762;2023-07-02T02:40:56;12.63;;;7.70;;
9007;SDS011;62813;51.424;6.762;2023-07-02T02:43:23;12.83;;;7.33;;
9007;SDS011;62813;51.424;6.762;2023-07-02T02:45:50;17.33;;;8.20;;
9007;SDS011;62813;51.424;6.762;2023-07-02T02:48:16;15.60;;;8.10;;
9007;SDS011;62813;51.424;6.762;2023-07-02T02:50:43;13.90;;;7.90;;
9007;SDS011;62813;51.424;6.762;2023-07-02T02:53:10;18.07;;;9.47;;
9007;SDS011;62813;51.424;6.762;2023-07-02T02:55:37;12.73;;;8.00;;
9007;SDS011;62813;51.424;6.762;2023-07-02T02:58:03;13.97;;;8.47;;
9007;SDS011;62813;51.424;6.762;2023-07-02T03:00:30;12.80;;;8.83;;
9007;SDS011;62813;51.424;6.762;2023-07-02T03:02:57;15.97;;;8.77;;
9007;SDS011;62813;51.424;6.762;2023-07-02T03:05:25;16.73;;;9.33;;
9007;SDS011;62813;51.424;6.762;2023-07-02T03:07:52;16.77;;;9.27;;
9007;SDS011;62813;51.424;6.762;2023-07-02T03:10:19;17.73;;;9.10;;
9007;SDS011;62813;51.424;6.762;2023-07-02T03:12:47;18.30;;;9.67;;
9007;SDS011;62813;51.424;6.762;2023-07-02T03:15:14;16.53;;;10.30;;
9007;SDS011;62813;51.424;6.762;2023-07-02T03:17:40;16.37;;;9.43;;
9007;SDS011;62813;51.424;6.762;2023-07-02T03:20:07;13.57;;;8.90;;
9007;SDS011;62813;51.424;6.762;2023-07-02T03:22:34;20.23;;;10.03;;
9007;SDS011;62813;51.424;6.762;2023-07-02T03:25:01;19.03;;;9.83;;
9007;SDS011;62813;51.424;6.762;2023-07-02T03:27:28;15.50;;;10.03;;
9007;SDS011;62813;51.424;6.762;2023-07-02T03:29:54;15.70;;;10.37;;
9007;SDS011;62813;51.424;6.762;2023-07-02T03:32:22;21.20;;;10.37;;
9007;SDS011;62813;51.424;6.762;2023-07-02T03:34:48;19.67;;;10.43;;
9007;SDS011;62813;51.424;6.762;2023-07-02T03:37:15;16.60;;;10.13;;
9007;SDS011;62813;51.424;6.762;2023-07-02T03:39:42;18.60;;;10.83;;
9007;SDS011;62813;51.424;6.762;2023-07-02T03:42:08;18.23;;;10.90;;
9007;SDS011;62813;51.424;6.762;2023-07-02T03:44:35;15.40;;;10.57;;
9007;SDS011;62813;51.424;6.762;2023-07-02T03:47:01;21.00;;;11.30;;
9007;SDS011;62813;51.424;6.762;2023-07-02T03:49:31;18.60;;;11.10;;
9007;SDS011;62813;51.424;6.762;2023-07-02T03:51:57;18.30;;;11.20;;
9007;SDS011;62813;51.424;6.762;2023-07-02T03:54:24;17.77;;;10.90;;
9007;SDS011;62813;51.424;6.762;2023-07-02T03:56:51;18.00;;;11.33;;
9007;SDS011;62813;51.424;6.762;2023-07-02T03:59:18;19.23;;;11.10;;
9007;SDS011;62813;51.424;6.762;2023-07-02T04:01:45;19.07;;;11.37;;
9007;SDS011;62813;51.424;6.762;2023-07-02T04:04:12;18.83;;;11.83;;
9007;SDS011;62813;51.424;6.762;2023-07-02T04:06:39;22.40;;;12.57;;
9007;SDS011;62813;51.424;6.762;2023-07-02T04:09:05;18.27;;;11.70;;
9007;SDS011;62813;51.424;6.762;2023-07-02T04:11:32;20.67;;;11.80;;
9007;SDS011;62813;51.424;6.762;2023-07-02T04:13:58;22.50;;;12.43;;
9007;SDS011;62813;51.424;6.762;2023-07-02T04:16:25;19.57;;;12.27;;
9007;SDS011;62813;51.424;6.762;2023-07-02T04:18:52;22.67;;;12.97;;
9007;SDS011;62813;51.424;6.762;2023-07-02T04:21:18;20.07;;;13.23;;
9007;SDS011;62813;51.424;6.762;2023-07-02T04:23:45;20.30;;;12.73;;
9007;SDS011;62813;51.424;6.762;2023-07-02T04:26:12;20.70;;;12.63;;
9007;SDS011;62813;51.424;6.762;2023-07-02T04:28:58;21.60;;;13.20;;
9007;SDS011;62813;51.424;6.762;2023-07-02T04:31:25;22.60;;;13.87;;
9007;SDS011;62813;51.424;6.762;2023-07-02T04:33:52;23.20;;;13.47;;
9007;SDS011;62813;51.424;6.762;2023-07-02T04:36:19;24.93;;;14.47;;
9007;SDS011;62813;51.424;6.762;2023-07-02T04:38:46;25.53;;;14.57;;
9007;SDS011;62813;51.424;6.762;2023-07-02T04:41:12;23.93;;;13.43;;
9007;SDS011;62813;51.424;6.762;2023-07-02T04:43:39;22.97;;;13.93;;
9007;SDS011;62813;51.424;6.762;2023-07-02T04:46:05;25.13;;;14.27;;
9007;SDS011;62813;51.424;6.762;2023-07-02T04:48:34;24.30;;;13.87;;
9007;SDS011;62813;51.424;6.762;2023-07-02T04:51:01;21.23;;;13.33;;
9007;SDS011;62813;51.424;6.762;2023-07-02T04:53:27;21.80;;;13.83;;
9007;SDS011;62813;51.424;6.762;2023-07-02T04:55:54;23.23;;;14.33;;
9007;SDS011;62813;51.424;6.762;2023-07-02T04:58:23;25.40;;;15.60;;
9007;SDS011;62813;51.424;6.762;2023-07-02T05:00:49;22.50;;;13.93;;
9007;SDS011;62813;51.424;6.762;2023-07-02T05:03:16;26.40;;;15.03;;
9007;SDS011;62813;51.424;6.762;2023-07-02T05:05:43;21.93;;;13.13;;
9007;SDS011;62813;51.424;6.762;2023-07-02T05:08:10;22.23;;;15.27;;
9007;SDS011;62813;51.424;6.762;2023-07-02T05:10:37;23.10;;;14.23;;
9007;SDS011;62813;51.424;6.762;2023-07-02T05:13:03;26.17;;;14.93;;
9007;SDS011;62813;51.424;6.762;2023-07-02T05:15:30;23.03;;;14.70;;
9007;SDS011;62813;51.424;6.762;2023-07-02T05:17:56;21.70;;;14.80;;
9007;SDS011;62813;51.424;6.762;2023-07-02T05:20:23;22.90;;;14.13;;
9007;SDS011;62813;51.424;6.762;2023-07-02T05:22:50;25.67;;;15.23;;
9007;SDS011;62813;51.424;6.762;2023-07-02T05:25:17;27.57;;;15.30;;
9007;SDS011;62813;51.424;6.762;2023-07-02T05:27:43;25.63;;;16.00;;
9007;SDS011;62813;51.424;6.762;2023-07-02T05:30:10;28.37;;;16.30;;
9007;SDS011;62813;51.424;6.762;2023-07-02T05:32:37;26.13;;;16.23;;
9007;SDS011;62813;51.424;6.762;2023-07-02T05:35:05;23.13;;;14.60;;
9007;SDS011;62813;51.424;6.762;2023-07-02T05:37:32;27.90;;;16.27;;
9007;SDS011;62813;51.424;6.762;2023-07-02T05:39:59;25.80;;;15.40;;
9007;SDS011;62813;51.424;6.762;2023-07-02T05:42:26;25.33;;;16.87;;
9007;SDS011;62813;51.424;6.762;2023-07-02T05:44:52;27.00;;;15.20;;
9007;SDS011;62813;51.424;6.762;2023-07-02T05:47:19;24.40;;;15.57;;
9007;SDS011;62813;51.424;6.762;2023-07-02T05:49:46;30.13;;;15.53;;
9007;SDS011;62813;51.424;6.762;2023-07-02T05:52:12;26.33;;;15.13;;
9007;SDS011;62813;51.424;6.762;2023-07-02T05:54:40;27.40;;;15.43;;
9007;SDS011;62813;51.424;6.762;2023-07-02T05:57:07;25.83;;;15.53;;
9007;SDS011;62813;51.424;6.762;2023-07-02T05:59:34;25.27;;;15.27;;
9007;SDS011;62813;51.424;6.762;2023-07-02T06:02:01;25.50;;;15.47;;
9007;SDS011;62813;51.424;6.762;2023-07-02T06:04:27;23.37;;;14.60;;
9007;SDS011;62813;51.424;6.762;2023-07-02T06:06:54;22.73;;;13.97;;
9007;SDS011;62813;51.424;6.762;2023-07-02T06:09:21;23.87;;;15.30;;
9007;SDS011;62813;51.424;6.762;2023-07-02T06:11:48;24.83;;;14.53;;
9007;SDS011;62813;51.424;6.762;2023-07-02T06:14:14;24.77;;;14.30;;
9007;SDS011;62813;51.424;6.762;2023-07-02T06:16:41;22.83;;;13.20;;
9007;SDS011;62813;51.424;6.762;2023-07-02T06:19:08;24.23;;;13.47;;
9007;SDS011;62813;51.424;6.762;2023-07-02T06:21:36;24.40;;;13.50;;
9007;SDS011;62813;51.424;6.762;2023-07-02T06:24:03;21.43;;;12.50;;
9007;SDS011;62813;51.424;6.762;2023-07-02T06:26:30;21.00;;;12.83;;
9007;SDS011;62813;51.424;6.762;2023-07-02T06:28:58;17.83;;;11.77;;
9007;SDS011;62813;51.424;6.762;2023-07-02T06:31:25;22.17;;;13.63;;
9007;SDS011;62813;51.424;6.762;2023-07-02T06:33:52;23.17;;;13.27;;
9007;SDS011;62813;51.424;6.762;2023-07-02T06:36:19;25.20;;;12.83;;
9007;SDS011;62813;51.424;6.762;2023-07-02T06:38:46;22.90;;;12.73;;
9007;SDS011;62813;51.424;6.762;2023-07-02T06:41:13;22.07;;;12.13;;
9007;SDS011;62813;51.424;6.762;2023-07-02T06:43:43;22.33;;;11.97;;
9007;SDS011;62813;51.424;6.762;2023-07-02T06:46:10;19.43;;;12.60;;
9007;SDS011;62813;51.424;6.762;2023-07-02T06:48:38;22.37;;;12.20;;
9007;SDS011;62813;51.424;6.762;2023-07-02T06:51:05;24.57;;;13.40;;
9007;SDS011;62813;51.424;6.762;2023-07-02T06:53:33;21.00;;;12.13;;
9007;SDS011;62813;51.424;6.762;2023-07-02T06:56:00;20.50;;;12.60;;
9007;SDS011;62813;51.424;6.762;2023-07-02T06:58:27;25.93;;;13.30;;
9007;SDS011;62813;51.424;6.762;2023-07-02T07:00:56;24.40;;;13.13;;
9007;SDS011;62813;51.424;6.762;2023-07-02T07:03:23;24.60;;;14.07;;
9007;SDS011;62813;51.424;6.762;2023-07-02T07:05:50;24.07;;;14.17;;
9007;SDS011;62813;51.424;6.762;2023-07-02T07:08:17;24.77;;;14.33;;
9007;SDS011;62813;51.424;6.762;2023-07-02T07:10:43;26.67;;;14.27;;
9007;SDS011;62813;51.424;6.762;2023-07-02T07:13:12;23.73;;;13.73;;
9007;SDS011;62813;51.424;6.762;2023-07-02T07:15:39;23.77;;;13.67;;
9007;SDS011;62813;51.424;6.762;2023-07-02T07:18:08;22.63;;;12.17;;
9007;SDS011;62813;51.424;6.762;2023-07-02T07:20:35;20.43;;;12.43;;
9007;SDS011;62813;51.424;6.762;2023-07-02T07:23:02;27.03;;;13.57;;
9007;SDS011;62813;51.424;6.762;2023-07-02T07:25:30;21.63;;;12.20;;
9007;SDS011;62813;51.424;6.762;2023-07-02T07:27:57;25.30;;;12.97;;
9007;SDS011;62813;51.424;6.762;2023-07-02T07:30:25;20.60;;;10.80;;
9007;SDS011;62813;51.424;6.762;2023-07-02T07:32:52;17.23;;;9.67;;
9007;SDS011;62813;51.424;6.762;2023-07-02T07:35:20;19.53;;;10.17;;
9007;SDS011;62813;51.424;6.762;2023-07-02T07:37:48;20.93;;;9.70;;
9007;SDS011;62813;51.424;6.762;2023-07-02T07:40:16;22.80;;;9.30;;
9007;SDS011;62813;51.424;6.762;2023-07-02T07:42:42;23.20;;;10.00;;
9007;SDS011;62813;51.424;6.762;2023-07-02T07:45:10;18.77;;;9.50;;
9007;SDS011;62813;51.424;6.762;2023-07-02T07:47:38;19.00;;;9.80;;
9007;SDS011;62813;51.424;6.762;2023-07-02T07:50:15;15.93;;;9.93;;
9007;SDS011;62813;51.424;6.762;2023-07-02T07:52:42;21.23;;;9.60;;
9007;SDS011;62813;51.424;6.762;2023-07-02T07:55:09;17.73;;;9.57;;
9007;SDS011;62813;51.424;6.762;2023-07-02T07:57:36;19.97;;;10.30;;
9007;SDS011;62813;51.424;6.762;2023-07-02T08:00:04;17.97;;;9.97;;
9007;SDS011;62813;51.424;6.762;2023-07-02T08:02:34;15.37;;;8.70;;
9007;SDS011;62813;51.424;6.762;2023-07-02T08:05:01;16.90;;;8.43;;
9007;SDS011;62813;51.424;6.762;2023-07-02T08:07:30;14.83;;;7.97;;
9007;SDS011;62813;51.424;6.762;2023-07-02T08:09:58;18.63;;;9.30;;
9007;SDS011;62813;51.424;6.762;2023-07-02T08:12:25;19.60;;;8.73;;
9007;SDS011;62813;51.424;6.762;2023-07-02T08:14:56;17.57;;;8.70;;
9007;SDS011;62813;51.424;6.762;2023-07-02T08:17:23;12.33;;;7.50;;
9007;SDS011;62813;51.424;6.762;2023-07-02T08:19:49;17.03;;;8.57;;
9007;SDS011;62813;51.424;6.762;2023-07-02T08:22:16;14.30;;;7.30;;
9007;SDS011;62813;51.424;6.762;2023-07-02T08:24:43;18.63;;;8.90;;
9007;SDS011;62813;51.424;6.762;2023-07-02T08:27:10;15.63;;;8.13;;
9007;SDS011;62813;51.424;6.762;2023-07-02T08:29:40;19.47;;;8.87;;
9007;SDS011;62813;51.424;6.762;2023-07-02T08:32:07;18.83;;;8.87;;
9007;SDS011;62813;51.424;6.762;2023-07-02T08:34:34;16.67;;;8.50;;
9007;SDS011;62813;51.424;6.762;2023-07-02T08:37:00;13.43;;;7.30;;
9007;SDS011;62813;51.424;6.762;2023-07-02T08:39:27;10.80;;;7.00;;
9007;SDS011;62813;51.424;6.762;2023-07-02T08:41:54;14.27;;;7.70;;
9007;SDS011;62813;51.424;6.762;2023-07-02T08:44:21;12.90;;;6.70;;
9007;SDS011;62813;51.424;6.762;2023-07-02T08:46:49;17.17;;;8.50;;
9007;SDS011;62813;51.424;6.762;2023-07-02T08:49:17;12.97;;;6.83;;
9007;SDS011;62813;51.424;6.762;2023-07-02T08:51:45;13.17;;;6.73;;
9007;SDS011;62813;51.424;6.762;2023-07-02T08:54:12;12.77;;;7.00;;
9007;SDS011;62813;51.424;6.762;2023-07-02T08:56:40;15.13;;;7.60;;
9007;SDS011;62813;51.424;6.762;2023-07-02T08:59:10;22.03;;;7.83;;
9007;SDS011;62813;51.424;6.762;2023-07-02T09:01:50;13.20;;;7.87;;
9007;SDS011;62813;51.424;6.762;2023-07-02T09:04:18;16.17;;;7.80;;
9007;SDS011;62813;51.424;6.762;2023-07-02T09:06:49;14.03;;;8.43;;
9007;SDS011;62813;51.424;6.762;2023-07-02T09:09:17;14.80;;;8.43;;
9007;SDS011;62813;51.424;6.762;2023-07-02T09:11:50;29.37;;;7.97;;
9007;SDS011;62813;51.424;6.762;2023-07-02T09:14:26;17.67;;;8.00;;
9007;SDS011;62813;51.424;6.762;2023-07-02T09:17:04;13.27;;;7.77;;
9007;SDS011;62813;51.424;6.762;2023-07-02T09:19:35;16.03;;;8.10;;
9007;SDS011;62813;51.424;6.762;2023-07-02T09:22:05;16.20;;;8.57;;
9007;SDS011;62813;51.424;6.762;2023-07-02T09:24:32;16.27;;;7.90;;
9007;SDS011;62813;51.424;6.762;2023-07-02T09:26:59;19.50;;;7.77;;
9007;SDS011;62813;51.424;6.762;2023-07-02T09:29:28;14.67;;;8.30;;
9007;SDS011;62813;51.424;6.762;2023-07-02T09:31:59;14.97;;;7.47;;
9007;SDS011;62813;51.424;6.762;2023-07-02T09:34:36;17.27;;;9.03;;
9007;SDS011;62813;51.424;6.762;2023-07-02T09:37:05;15.20;;;7.97;;
9007;SDS011;62813;51.424;6.762;2023-07-02T09:39:33;18.03;;;8.00;;
9007;SDS011;62813;51.424;6.762;2023-07-02T09:42:01;16.77;;;8.63;;
9007;SDS011;62813;51.424;6.762;2023-07-02T09:44:33;20.10;;;8.90;;
9007;SDS011;62813;51.424;6.762;2023-07-02T09:47:05;20.17;;;8.30;;
9007;SDS011;62813;51.424;6.762;2023-07-02T09:49:37;17.23;;;8.60;;
9007;SDS011;62813;51.424;6.762;2023-07-02T09:52:06;13.93;;;8.13;;
9007;SDS011;62813;51.424;6.762;2023-07-02T09:54:35;15.77;;;8.40;;
9007;SDS011;62813;51.424;6.762;2023-07-02T09:57:03;17.70;;;8.17;;
9007;SDS011;62813;51.424;6.762;2023-07-02T09:59:30;15.37;;;7.07;;
9007;SDS011;62813;51.424;6.762;2023-07-02T10:01:57;12.67;;;7.07;;
9007;SDS011;62813;51.424;6.762;2023-07-02T10:04:24;13.57;;;7.37;;
9007;SDS011;62813;51.424;6.762;2023-07-02T10:06:55;14.83;;;7.40;;
9007;SDS011;62813;51.424;6.762;2023-07-02T10:09:40;12.83;;;6.93;;
9007;SDS011;62813;51.424;6.762;2023-07-02T10:12:24;15.03;;;7.10;;
9007;SDS011;62813;51.424;6.762;2023-07-02T10:14:53;14.93;;;7.17;;
9007;SDS011;62813;51.424;6.762;2023-07-02T10:19:59;13.23;;;7.03;;
9007;SDS011;62813;51.424;6.762;2023-07-02T10:22:27;13.50;;;7.40;;
9007;SDS011;62813;51.424;6.762;2023-07-02T10:24:57;13.27;;;7.37;;
9007;SDS011;62813;51.424;6.762;2023-07-02T10:27:37;13.70;;;7.90;;
9007;SDS011;62813;51.424;6.762;2023-07-02T10:30:08;14.27;;;7.37;;
9007;SDS011;62813;51.424;6.762;2023-07-02T10:32:36;13.37;;;7.63;;
9007;SDS011;62813;51.424;6.762;2023-07-02T10:35:16;12.80;;;7.63;;
9007;SDS011;62813;51.424;6.762;2023-07-02T10:37:44;14.00;;;7.70;;
9007;SDS011;62813;51.424;6.762;2023-07-02T10:40:11;16.40;;;7.60;;
9007;SDS011;62813;51.424;6.762;2023-07-02T10:42:45;15.80;;;7.80;;
9007;SDS011;62813;51.424;6.762;2023-07-02T10:45:13;13.13;;;7.20;;
9007;SDS011;62813;51.424;6.762;2023-07-02T10:47:42;11.63;;;7.17;;
9007;SDS011;62813;51.424;6.762;2023-07-02T10:52:45;13.47;;;7.40;;
9007;SDS011;62813;51.424;6.762;2023-07-02T10:55:16;13.40;;;7.40;;
9007;SDS011;62813;51.424;6.762;2023-07-02T10:57:50;15.10;;;7.00;;
9007;SDS011;62813;51.424;6.762;2023-07-02T11:00:17;12.97;;;7.30;;
9007;SDS011;62813;51.424;6.762;2023-07-02T11:02:45;14.10;;;6.70;;
9007;SDS011;62813;51.424;6.762;2023-07-02T11:05:12;12.23;;;6.87;;
9007;SDS011;62813;51.424;6.762;2023-07-02T11:07:39;11.73;;;6.60;;
9007;SDS011;62813;51.424;6.762;2023-07-02T11:10:09;15.87;;;6.70;;
9007;SDS011;62813;51.424;6.762;2023-07-02T11:12:38;10.73;;;6.20;;
9007;SDS011;62813;51.424;6.762;2023-07-02T11:17:35;9.47;;;6.17;;
9007;SDS011;62813;51.424;6.762;2023-07-02T11:20:02;15.07;;;7.10;;
9007;SDS011;62813;51.424;6.762;2023-07-02T11:22:35;16.67;;;7.17;;
9007;SDS011;62813;51.424;6.762;2023-07-02T11:25:17;13.10;;;7.27;;
9007;SDS011;62813;51.424;6.762;2023-07-02T11:35:52;11.20;;;6.10;;
9007;SDS011;62813;51.424;6.762;2023-07-02T11:38:18;12.37;;;6.17;;
9007;SDS011;62813;51.424;6.762;2023-07-02T11:40:45;11.67;;;6.70;;
9007;SDS011;62813;51.424;6.762;2023-07-02T11:43:14;22.17;;;6.77;;
9007;SDS011;62813;51.424;6.762;2023-07-02T11:45:42;14.27;;;6.27;;
9007;SDS011;62813;51.424;6.762;2023-07-02T11:48:09;14.70;;;5.97;;
9007;SDS011;62813;51.424;6.762;2023-07-02T11:50:36;13.97;;;7.73;;
9007;SDS011;62813;51.424;6.762;2023-07-02T11:53:04;12.27;;;6.67;;
9007;SDS011;62813;51.424;6.762;2023-07-02T11:55:31;12.70;;;6.63;;
9007;SDS011;62813;51.424;6.762;2023-07-02T11:57:57;12.97;;;7.17;;
9007;SDS011;62813;51.424;6.762;2023-07-02T12:00:24;12.90;;;6.70;;
9007;SDS011;62813;51.424;6.762;2023-07-02T12:02:52;14.43;;;7.03;;
9007;SDS011;62813;51.424;6.762;2023-07-02T12:05:21;13.73;;;7.37;;
9007;SDS011;62813;51.424;6.762;2023-07-02T12:07:48;12.00;;;6.10;;
9007;SDS011;62813;51.424;6.762;2023-07-02T12:10:15;12.03;;;6.17;;
9007;SDS011;62813;51.424;6.762;2023-07-02T12:12:41;10.80;;;6.83;;
9007;SDS011;62813;51.424;6.762;2023-07-02T12:15:11;16.03;;;7.07;;
9007;SDS011;62813;51.424;6.762;2023-07-02T12:17:38;14.17;;;7.17;;
9007;SDS011;62813;51.424;6.762;2023-07-02T12:20:05;12.20;;;6.57;;
9007;SDS011;62813;51.424;6.762;2023-07-02T12:22:32;10.90;;;6.77;;
9007;SDS011;62813;51.424;6.762;2023-07-02T12:24:59;13.27;;;7.13;;
9007;SDS011;62813;51.424;6.762;2023-07-02T12:27:25;12.07;;;6.80;;
9007;SDS011;62813;51.424;6.762;2023-07-02T12:29:53;13.93;;;7.17;;
9007;SDS011;62813;51.424;6.762;2023-07-02T12:32:20;10.63;;;6.50;;
9007;SDS011;62813;51.424;6.762;2023-07-02T12:34:47;13.00;;;6.47;;
9007;SDS011;62813;51.424;6.762;2023-07-02T12:37:14;11.10;;;6.70;;
9007;SDS011;62813;51.424;6.762;2023-07-02T12:39:44;12.23;;;6.97;;
9007;SDS011;62813;51.424;6.762;2023-07-02T12:42:11;13.97;;;7.13;;
9007;SDS011;62813;51.424;6.762;2023-07-02T12:44:37;13.60;;;7.00;;
9007;SDS011;62813;51.424;6.762;2023-07-02T12:47:04;13.50;;;6.93;;
9007;SDS011;62813;51.424;6.762;2023-07-02T12:49:31;13.30;;;6.83;;
9007;SDS011;62813;51.424;6.762;2023-07-02T12:51:58;18.13;;;7.67;;
9007;SDS011;62813;51.424;6.762;2023-07-02T12:54:25;15.47;;;8.40;;
9007;SDS011;62813;51.424;6.762;2023-07-02T12:56:53;14.07;;;7.77;;
9007;SDS011;62813;51.424;6.762;2023-07-02T12:59:20;13.70;;;7.20;;
9007;SDS011;62813;51.424;6.762;2023-07-02T13:01:46;15.43;;;7.63;;
9007;SDS011;62813;51.424;6.762;2023-07-02T13:04:14;15.70;;;7.50;;
9007;SDS011;62813;51.424;6.762;2023-07-02T13:06:41;12.97;;;7.70;;
9007;SDS011;62813;51.424;6.762;2023-07-02T13:09:11;15.67;;;7.93;;
9007;SDS011;62813;51.424;6.762;2023-07-02T13:11:37;16.43;;;8.63;;
9007;SDS011;62813;51.424;6.762;2023-07-02T13:14:04;14.80;;;7.93;;
9007;SDS011;62813;51.424;6.762;2023-07-02T13:16:31;15.57;;;8.43;;
9007;SDS011;62813;51.424;6.762;2023-07-02T13:18:58;14.17;;;8.47;;
9007;SDS011;62813;51.424;6.762;2023-07-02T13:21:28;15.93;;;8.07;;
9007;SDS011;62813;51.424;6.762;2023-07-02T13:23:55;15.70;;;8.33;;
9007;SDS011;62813;51.424;6.762;2023-07-02T13:26:22;18.53;;;8.43;;
9007;SDS011;62813;51.424;6.762;2023-07-02T13:28:49;15.07;;;8.13;;
9007;SDS011;62813;51.424;6.762;2023-07-02T13:31:15;14.97;;;7.80;;
9007;SDS011;62813;51.424;6.762;2023-07-02T13:33:42;17.90;;;8.00;;
9007;SDS011;62813;51.424;6.762;2023-07-02T13:36:09;14.83;;;9.27;;
9007;SDS011;62813;51.424;6.762;2023-07-02T13:38:36;14.50;;;8.80;;
9007;SDS011;62813;51.424;6.762;2023-07-02T13:41:03;18.33;;;8.90;;
9007;SDS011;62813;51.424;6.762;2023-07-02T13:43:30;19.07;;;9.47;;
9007;SDS011;62813;51.424;6.762;2023-07-02T13:45:59;15.47;;;8.50;;
9007;SDS011;62813;51.424;6.762;2023-07-02T13:48:26;13.67;;;8.67;;
9007;SDS011;62813;51.424;6.762;2023-07-02T13:50:54;17.90;;;8.53;;
9007;SDS011;62813;51.424;6.762;2023-07-02T13:53:21;14.87;;;8.33;;
9007;SDS011;62813;51.424;6.762;2023-07-02T13:55:47;16.87;;;8.60;;
9007;SDS011;62813;51.424;6.762;2023-07-02T13:58:15;14.27;;;7.97;;
9007;SDS011;62813;51.424;6.762;2023-07-02T14:00:54;13.73;;;7.37;;
9007;SDS011;62813;51.424;6.762;2023-07-02T14:03:21;12.00;;;7.80;;
9007;SDS011;62813;51.424;6.762;2023-07-02T14:05:48;12.20;;;7.87;;
9007;SDS011;62813;51.424;6.762;2023-07-02T14:08:17;18.07;;;8.73;;
9007;SDS011;62813;51.424;6.762;2023-07-02T14:10:44;15.27;;;8.33;;
9007;SDS011;62813;51.424;6.762;2023-07-02T14:13:10;16.30;;;8.53;;
9007;SDS011;62813;51.424;6.762;2023-07-02T14:15:37;18.30;;;8.10;;
9007;SDS011;62813;51.424;6.762;2023-07-02T14:18:04;14.03;;;7.80;;
9007;SDS011;62813;51.424;6.762;2023-07-02T14:20:32;14.63;;;8.63;;
9007;SDS011;62813;51.424;6.762;2023-07-02T14:22:58;19.47;;;8.93;;
9007;SDS011;62813;51.424;6.762;2023-07-02T14:25:25;18.53;;;8.70;;
9007;SDS011;62813;51.424;6.762;2023-07-02T14:28:12;16.43;;;8.67;;
9007;SDS011;62813;51.424;6.762;2023-07-02T14:30:39;16.40;;;8.70;;
9007;SDS011;62813;51.424;6.762;2023-07-02T14:33:06;20.30;;;8.77;;
9007;SDS011;62813;51.424;6.762;2023-07-02T14:35:32;16.00;;;8.70;;
9007;SDS011;62813;51.424;6.762;2023-07-02T14:38:00;18.63;;;9.80;;
9007;SDS011;62813;51.424;6.762;2023-07-02T14:40:27;16.60;;;8.83;;
9007;SDS011;62813;51.424;6.762;2023-07-02T14:42:54;14.50;;;8.60;;
9007;SDS011;62813;51.424;6.762;2023-07-02T14:45:21;16.80;;;8.30;;
9007;SDS011;62813;51.424;6.762;2023-07-02T14:47:48;15.13;;;8.63;;
9007;SDS011;62813;51.424;6.762;2023-07-02T14:50:15;16.77;;;9.07;;
9007;SDS011;62813;51.424;6.762;2023-07-02T14:52:44;18.70;;;8.97;;
9007;SDS011;62813;51.424;6.762;2023-07-02T14:55:11;19.00;;;8.73;;
9007;SDS011;62813;51.424;6.762;2023-07-02T14:57:38;18.07;;;9.30;;
9007;SDS011;62813;51.424;6.762;2023-07-02T15:00:05;16.07;;;9.20;;
9007;SDS011;62813;51.424;6.762;2023-07-02T15:02:32;16.70;;;8.90;;
9007;SDS011;62813;51.424;6.762;2023-07-02T15:04:59;17.10;;;9.17;;
9007;SDS011;62813;51.424;6.762;2023-07-02T15:07:26;15.00;;;8.47;;
9007;SDS011;62813;51.424;6.762;2023-07-02T15:09:53;14.20;;;8.67;;
9007;SDS011;62813;51.424;6.762;2023-07-02T15:12:20;15.33;;;8.20;;